Time;durP1;ratioP1;P1;durP2;ratioP2;P2;SDS_P1;SDS_P2;PMS_P1;PMS_P2;Temp;Humidity;BMP_temperature;BMP_pressure;BME280_temperature;BME280_humidity;BME280_pressure;Samples;Min_cycle;Max_cycle;Signal;HPM_P1;HPM_P2
2022/07/04 00:00:24;;;;;;;58.77;3.10;;;;;;;;;;5052404;28;20448;-67
2022/07/04 00:02:52;;;;;;;58.97;2.90;;;;;;;;;;5052385;28;20491;-67
2022/07/04 00:05:21;;;;;;;58.40;2.90;;;;;;;;;;5052593;28;20483;-67
2022/07/04 00:07:49;;;;;;;58.27;2.60;;;;;;;;;;5052021;28;20453;-66
2022/07/04 00:10:20;;;;;;;61.83;3.10;;;;;;;;;;5052433;28;20961;-66
2022/07/04 00:12:48;;;;;;;58.73;2.93;;;;;;;;;;5052058;28;20518;-66
2022/07/04 00:15:15;;;;;;;59.70;3.37;;;;;;;;;;5050668;28;20447;-67
2022/07/04 00:17:43;;;;;;;66.20;3.30;;;;;;;;;;5049158;28;20519;-67
2022/07/04 00:20:11;;;;;;;59.63;3.00;;;;;;;;;;5051967;28;20836;-67
2022/07/04 00:22:40;;;;;;;58.60;2.90;;;;;;;;;;5051842;28;20484;-67
2022/07/04 00:25:08;;;;;;;58.87;2.93;;;;;;;;;;5051886;28;20547;-66
2022/07/04 00:27:42;;;;;;;58.80;3.03;;;;;;;;;;5052165;28;20455;-66
2022/07/04 00:30:09;;;;;;;58.93;3.03;;;;;;;;;;5052126;28;20509;-66
2022/07/04 00:32:38;;;;;;;58.80;2.90;;;;;;;;;;5051585;28;20443;-66
2022/07/04 00:35:07;;;;;;;58.10;2.70;;;;;;;;;;5051411;28;20828;-66
2022/07/04 00:37:34;;;;;;;60.60;3.50;;;;;;;;;;5051878;28;20444;-67
2022/07/04 00:40:03;;;;;;;59.30;3.40;;;;;;;;;;5051415;28;20949;-67
2022/07/04 00:42:30;;;;;;;59.90;3.50;;;;;;;;;;5051717;28;20582;-66
2022/07/04 00:44:57;;;;;;;58.70;3.00;;;;;;;;;;5051757;28;20458;-66
2022/07/04 00:47:25;;;;;;;58.27;3.30;;;;;;;;;;5051423;28;20454;-66
2022/07/04 00:49:54;;;;;;;61.30;2.80;;;;;;;;;;5050440;28;20560;-66
2022/07/04 00:52:22;;;;;;;58.60;2.80;;;;;;;;;;5049437;28;20903;-66
2022/07/04 00:54:49;;;;;;;59.53;2.80;;;;;;;;;;5051352;28;20476;-66
2022/07/04 00:57:18;;;;;;;58.83;2.77;;;;;;;;;;5051011;28;20535;-66
2022/07/04 00:59:45;;;;;;;59.67;3.47;;;;;;;;;;5051054;28;20452;-66
2022/07/04 01:02:12;;;;;;;58.80;2.93;;;;;;;;;;5051184;28;20482;-66
2022/07/04 01:04:40;;;;;;;58.70;2.90;;;;;;;;;;5051534;28;20564;-66
2022/07/04 01:07:08;;;;;;;59.10;3.20;;;;;;;;;;5051107;28;20858;-67
2022/07/04 01:09:36;;;;;;;60.33;3.30;;;;;;;;;;5051683;28;20452;-67
2022/07/04 01:12:05;;;;;;;58.17;3.00;;;;;;;;;;5050029;28;20462;-67
2022/07/04 01:14:37;;;;;;;59.90;2.80;;;;;;;;;;5051455;28;20829;-66
2022/07/04 01:17:05;;;;;;;58.80;2.77;;;;;;;;;;5051237;28;20842;-66
2022/07/04 01:19:32;;;;;;;58.80;3.00;;;;;;;;;;5050348;28;20474;-68
2022/07/04 01:22:09;;;;;;;60.10;3.23;;;;;;;;;;5029709;28;20441;-66
2022/07/04 01:24:36;;;;;;;59.60;3.20;;;;;;;;;;5038922;28;20476;-67
2022/07/04 01:27:05;;;;;;;68.93;2.93;;;;;;;;;;5051075;28;20835;-67
2022/07/04 01:29:32;;;;;;;60.40;3.13;;;;;;;;;;5049846;28;20462;-66
2022/07/04 01:32:04;;;;;;;57.97;2.80;;;;;;;;;;5051272;28;20444;-67
2022/07/04 01:34:31;;;;;;;59.30;2.90;;;;;;;;;;5050983;28;20479;-66
2022/07/04 01:37:02;;;;;;;57.97;2.73;;;;;;;;;;5051351;28;20451;-67
2022/07/04 01:39:32;;;;;;;59.13;3.50;;;;;;;;;;5050774;28;20451;-66
2022/07/04 01:41:59;;;;;;;59.30;3.20;;;;;;;;;;5050885;28;20523;-66
2022/07/04 01:44:27;;;;;;;58.00;2.80;;;;;;;;;;5050866;28;20494;-67
2022/07/04 01:46:54;;;;;;;58.40;2.50;;;;;;;;;;5050955;28;20455;-66
2022/07/04 01:49:23;;;;;;;58.97;3.87;;;;;;;;;;5054635;28;20458;-67
2022/07/04 01:51:50;;;;;;;58.97;3.27;;;;;;;;;;5055338;28;20457;-66
2022/07/04 01:54:19;;;;;;;59.00;3.10;;;;;;;;;;5054975;28;20464;-66
2022/07/04 01:56:47;;;;;;;59.17;3.60;;;;;;;;;;5052732;28;21096;-66
2022/07/04 01:59:14;;;;;;;59.67;3.17;;;;;;;;;;5054222;28;20829;-66
2022/07/04 02:01:40;;;;;;;58.67;3.13;;;;;;;;;;5054976;28;20455;-66
2022/07/04 02:04:08;;;;;;;59.80;3.40;;;;;;;;;;5054958;28;20488;-66
2022/07/04 02:06:36;;;;;;;59.20;3.10;;;;;;;;;;5055119;28;20458;-66
2022/07/04 02:09:16;;;;;;;58.77;3.20;;;;;;;;;;5054699;28;20456;-67
2022/07/04 02:14:31;;;;;;;59.07;3.23;;;;;;;;;;5054719;28;21020;-67
2022/07/04 02:16:58;;;;;;;60.07;3.53;;;;;;;;;;5055005;28;20453;-66
2022/07/04 02:19:26;;;;;;;61.13;3.50;;;;;;;;;;5054215;28;20460;-66
2022/07/04 02:21:54;;;;;;;60.93;3.50;;;;;;;;;;5054587;28;20450;-66
2022/07/04 02:24:22;;;;;;;58.43;2.87;;;;;;;;;;5054423;28;20493;-66
2022/07/04 02:26:55;;;;;;;58.47;2.80;;;;;;;;;;5054909;28;20453;-66
2022/07/04 02:29:23;;;;;;;59.03;3.20;;;;;;;;;;5052343;28;20826;-66
2022/07/04 02:31:50;;;;;;;58.23;2.83;;;;;;;;;;5054814;28;20818;-66
2022/07/04 02:34:17;;;;;;;59.40;3.40;;;;;;;;;;5052877;28;20471;-66
2022/07/04 02:36:45;;;;;;;59.27;3.30;;;;;;;;;;5052989;28;20452;-66
2022/07/04 02:39:12;;;;;;;58.40;2.90;;;;;;;;;;5054076;28;20455;-66
2022/07/04 02:41:40;;;;;;;59.17;3.27;;;;;;;;;;5053976;28;20822;-66
2022/07/04 02:44:09;;;;;;;59.20;3.37;;;;;;;;;;5054081;28;20498;-66
2022/07/04 02:46:36;;;;;;;59.47;3.53;;;;;;;;;;5054342;28;20448;-66
2022/07/04 02:49:04;;;;;;;59.50;3.13;;;;;;;;;;5053973;28;20457;-66
2022/07/04 02:51:31;;;;;;;58.80;3.13;;;;;;;;;;5054053;28;20504;-66
2022/07/04 02:53:59;;;;;;;59.67;3.40;;;;;;;;;;5054126;28;21004;-66
2022/07/04 02:56:26;;;;;;;58.97;3.30;;;;;;;;;;5054192;28;20446;-66
2022/07/04 02:58:54;;;;;;;58.67;2.90;;;;;;;;;;5052426;28;20875;-66
2022/07/04 03:01:25;;;;;;;59.70;3.10;;;;;;;;;;5053984;28;20542;-66
2022/07/04 03:03:55;;;;;;;59.20;3.40;;;;;;;;;;5051384;28;20490;-66
2022/07/04 03:06:22;;;;;;;58.77;3.30;;;;;;;;;;5053889;28;20465;-66
2022/07/04 03:08:49;;;;;;;59.90;3.57;;;;;;;;;;5053543;28;20956;-66
2022/07/04 03:11:16;;;;;;;59.27;3.27;;;;;;;;;;5053503;28;20493;-66
2022/07/04 03:13:43;;;;;;;59.30;3.47;;;;;;;;;;5053442;28;20815;-67
2022/07/04 03:16:12;;;;;;;59.07;3.87;;;;;;;;;;5053640;28;20541;-67
2022/07/04 03:18:43;;;;;;;60.77;3.60;;;;;;;;;;5052535;28;20451;-66
2022/07/04 03:21:15;;;;;;;58.77;3.13;;;;;;;;;;5053243;28;20450;-66
2022/07/04 03:23:57;;;;;;;58.73;3.10;;;;;;;;;;5053180;28;20536;-67
2022/07/04 03:26:27;;;;;;;59.30;3.30;;;;;;;;;;5053655;28;20461;-66
2022/07/04 03:28:55;;;;;;;60.50;3.73;;;;;;;;;;5052877;28;20450;-66
2022/07/04 03:31:22;;;;;;;60.23;3.50;;;;;;;;;;5053351;28;20486;-67
2022/07/04 03:33:50;;;;;;;61.27;3.57;;;;;;;;;;5052413;28;20466;-67
2022/07/04 03:36:18;;;;;;;59.17;3.20;;;;;;;;;;5052125;28;20454;-67
2022/07/04 03:38:45;;;;;;;59.40;3.47;;;;;;;;;;5053274;28;20466;-66
2022/07/04 03:41:13;;;;;;;59.33;3.80;;;;;;;;;;5052926;28;20468;-66
2022/07/04 03:43:40;;;;;;;65.83;4.10;;;;;;;;;;5053000;28;20500;-66
2022/07/04 03:46:08;;;;;;;61.30;3.93;;;;;;;;;;5053254;28;20973;-66
2022/07/04 03:48:39;;;;;;;60.10;3.70;;;;;;;;;;5053048;28;20553;-67
2022/07/04 03:51:08;;;;;;;59.60;3.70;;;;;;;;;;5052951;28;20531;-66
2022/07/04 03:53:35;;;;;;;59.70;3.60;;;;;;;;;;5052964;28;20469;-66
2022/07/04 03:56:03;;;;;;;62.60;3.93;;;;;;;;;;5052966;28;20463;-67
2022/07/04 03:58:31;;;;;;;62.33;4.10;;;;;;;;;;5052934;28;20458;-66
2022/07/04 04:00:58;;;;;;;60.87;3.60;;;;;;;;;;5053392;28;20484;-66
2022/07/04 04:06:19;;;;;;;59.87;4.00;;;;;;;;;;5052876;28;20471;-66
2022/07/04 04:08:49;;;;;;;59.37;3.70;;;;;;;;;;5050203;28;20544;-66
2022/07/04 04:11:17;;;;;;;59.37;3.80;;;;;;;;;;5052333;28;20512;-65
2022/07/04 04:13:44;;;;;;;61.33;3.97;;;;;;;;;;5052496;28;20557;-66
2022/07/04 04:16:15;;;;;;;60.00;3.60;;;;;;;;;;5051427;28;20467;-66
2022/07/04 04:18:45;;;;;;;59.70;3.50;;;;;;;;;;5052390;28;20514;-66
2022/07/04 04:21:13;;;;;;;61.20;3.80;;;;;;;;;;5052753;28;20452;-66
2022/07/04 04:23:41;;;;;;;59.60;3.60;;;;;;;;;;5052535;28;20514;-66
2022/07/04 04:26:08;;;;;;;60.40;3.80;;;;;;;;;;5052676;28;20456;-66
2022/07/04 04:28:37;;;;;;;62.27;3.97;;;;;;;;;;5052427;28;21033;-65
2022/07/04 04:31:04;;;;;;;63.17;3.90;;;;;;;;;;5052451;28;20451;-66
2022/07/04 04:33:31;;;;;;;59.20;3.80;;;;;;;;;;5051898;28;20476;-66
2022/07/04 04:35:59;;;;;;;59.47;3.60;;;;;;;;;;5052439;28;20968;-65
2022/07/04 04:38:29;;;;;;;59.63;3.60;;;;;;;;;;5051997;28;20978;-65
2022/07/04 04:41:03;;;;;;;62.13;4.37;;;;;;;;;;5052315;28;20459;-66
2022/07/04 04:43:30;;;;;;;59.50;3.47;;;;;;;;;;5051828;28;20495;-66
2022/07/04 04:45:58;;;;;;;59.60;3.60;;;;;;;;;;5052148;28;20452;-66
2022/07/04 04:48:26;;;;;;;59.67;3.80;;;;;;;;;;5051839;28;20452;-66
2022/07/04 04:50:55;;;;;;;59.57;4.10;;;;;;;;;;5052481;28;21012;-66
2022/07/04 04:53:25;;;;;;;59.87;4.47;;;;;;;;;;5051931;28;20499;-66
2022/07/04 04:55:55;;;;;;;59.80;3.80;;;;;;;;;;5050731;28;20457;-66
2022/07/04 04:58:23;;;;;;;60.30;3.77;;;;;;;;;;5051604;28;20531;-66
2022/07/04 05:00:51;;;;;;;59.60;3.57;;;;;;;;;;5052054;28;20456;-66
2022/07/04 05:03:18;;;;;;;59.17;3.47;;;;;;;;;;5051443;28;20471;-66
2022/07/04 05:05:46;;;;;;;59.20;3.17;;;;;;;;;;5051944;28;20834;-66
2022/07/04 05:08:16;;;;;;;59.80;3.77;;;;;;;;;;5051626;28;20861;-67
2022/07/04 05:10:44;;;;;;;60.97;3.90;;;;;;;;;;5050391;28;21030;-65
2022/07/04 05:13:13;;;;;;;59.27;3.73;;;;;;;;;;5050283;28;20499;-66
2022/07/04 05:15:40;;;;;;;60.43;3.50;;;;;;;;;;5051708;28;20449;-66
2022/07/04 05:18:07;;;;;;;61.80;4.20;;;;;;;;;;5051412;28;20920;-66
2022/07/04 05:20:35;;;;;;;62.30;4.00;;;;;;;;;;5052028;28;20446;-65
2022/07/04 05:23:02;;;;;;;59.00;3.57;;;;;;;;;;5050706;28;20999;-65
2022/07/04 05:25:29;;;;;;;59.47;3.23;;;;;;;;;;5051411;28;20542;-66
2022/07/04 05:27:59;;;;;;;59.00;3.53;;;;;;;;;;5051536;28;20473;-66
2022/07/04 05:30:27;;;;;;;59.23;3.60;;;;;;;;;;5051676;28;20533;-66
2022/07/04 05:32:55;;;;;;;61.63;4.10;;;;;;;;;;5051315;28;20478;-66
2022/07/04 05:35:27;;;;;;;58.80;3.13;;;;;;;;;;5050225;28;20952;-66
2022/07/04 05:37:56;;;;;;;60.00;3.43;;;;;;;;;;5051329;28;20510;-66
2022/07/04 05:40:23;;;;;;;58.67;3.00;;;;;;;;;;5051048;28;20533;-66
2022/07/04 05:42:50;;;;;;;59.60;3.30;;;;;;;;;;5051601;28;20463;-66
2022/07/04 05:45:18;;;;;;;59.50;3.40;;;;;;;;;;5051312;28;20852;-66
2022/07/04 05:47:47;;;;;;;59.37;3.40;;;;;;;;;;5051146;28;20450;-67
2022/07/04 05:50:14;;;;;;;60.90;3.80;;;;;;;;;;5051414;28;20481;-66
2022/07/04 05:52:41;;;;;;;60.63;3.80;;;;;;;;;;5049823;28;20887;-67
2022/07/04 05:55:09;;;;;;;59.00;3.10;;;;;;;;;;5051443;28;20449;-66
2022/07/04 05:57:36;;;;;;;59.03;3.00;;;;;;;;;;5050997;28;20534;-66
2022/07/04 06:00:06;;;;;;;66.43;3.50;;;;;;;;;;5051279;28;20967;-66
2022/07/04 06:02:34;;;;;;;58.80;3.23;;;;;;;;;;5050967;28;20444;-66
2022/07/04 06:05:02;;;;;;;59.30;3.30;;;;;;;;;;5050863;28;21036;-66
2022/07/04 06:07:29;;;;;;;61.07;2.87;;;;;;;;;;5050667;28;20474;-66
2022/07/04 06:09:57;;;;;;;59.30;3.17;;;;;;;;;;5051393;28;20440;-66
2022/07/04 06:12:24;;;;;;;60.90;3.50;;;;;;;;;;5051329;28;20459;-66
2022/07/04 06:14:51;;;;;;;59.07;3.57;;;;;;;;;;5051196;28;20457;-66
2022/07/04 06:17:18;;;;;;;58.90;3.17;;;;;;;;;;5050989;28;20827;-66
2022/07/04 06:19:53;;;;;;;60.23;3.63;;;;;;;;;;5051001;28;20459;-66
2022/07/04 06:22:21;;;;;;;61.70;3.20;;;;;;;;;;5051286;28;20452;-66
2022/07/04 06:24:50;;;;;;;58.63;2.90;;;;;;;;;;5051010;28;20492;-66
2022/07/04 06:27:17;;;;;;;58.60;3.27;;;;;;;;;;5050744;28;20921;-66
2022/07/04 06:29:44;;;;;;;59.43;3.40;;;;;;;;;;5051104;28;20482;-66
2022/07/04 06:32:12;;;;;;;59.00;3.30;;;;;;;;;;5050923;28;20444;-65
2022/07/04 06:37:25;;;;;;;59.27;3.13;;;;;;;;;;5054587;28;20470;-66
2022/07/04 06:39:53;;;;;;;60.60;2.90;;;;;;;;;;5054492;28;20452;-66
2022/07/04 06:42:22;;;;;;;59.20;3.17;;;;;;;;;;5054476;28;20451;-67
2022/07/04 06:44:49;;;;;;;59.87;2.90;;;;;;;;;;5054207;28;20582;-66
2022/07/04 06:47:16;;;;;;;60.63;3.20;;;;;;;;;;5054281;28;20452;-66
2022/07/04 06:49:44;;;;;;;58.80;3.33;;;;;;;;;;5054466;28;20897;-66
2022/07/04 06:52:12;;;;;;;61.80;3.70;;;;;;;;;;5054231;28;20975;-66
2022/07/04 06:54:41;;;;;;;60.40;2.97;;;;;;;;;;5054171;28;20499;-67
2022/07/04 06:57:11;;;;;;;59.40;3.20;;;;;;;;;;5053926;28;20525;-66
2022/07/04 06:59:39;;;;;;;58.87;3.30;;;;;;;;;;5052819;28;20547;-66
2022/07/04 07:02:07;;;;;;;64.40;4.10;;;;;;;;;;5054103;28;20452;-66
2022/07/04 07:04:37;;;;;;;59.30;3.53;;;;;;;;;;5053999;28;20488;-67
2022/07/04 07:07:04;;;;;;;60.27;3.77;;;;;;;;;;5053951;28;20818;-64
2022/07/04 07:09:32;;;;;;;61.00;3.13;;;;;;;;;;5052661;28;20452;-67
2022/07/04 07:12:00;;;;;;;58.97;3.10;;;;;;;;;;5053806;28;20454;-67
2022/07/04 07:14:28;;;;;;;61.10;3.53;;;;;;;;;;5053918;28;20498;-67
2022/07/04 07:16:59;;;;;;;58.57;3.00;;;;;;;;;;5053965;28;20488;-66
2022/07/04 07:19:27;;;;;;;58.97;3.10;;;;;;;;;;5053480;28;20815;-67
2022/07/04 07:21:54;;;;;;;58.67;3.03;;;;;;;;;;5053666;28;20893;-66
2022/07/04 07:24:23;;;;;;;58.63;3.37;;;;;;;;;;5053982;28;20491;-66
2022/07/04 07:26:52;;;;;;;58.60;3.00;;;;;;;;;;5052447;28;20480;-67
2022/07/04 07:29:22;;;;;;;58.60;2.83;;;;;;;;;;5052096;28;20479;-66
2022/07/04 07:31:49;;;;;;;59.27;3.53;;;;;;;;;;5053275;28;20548;-66
2022/07/04 07:34:17;;;;;;;59.20;3.10;;;;;;;;;;5053687;28;20468;-67
2022/07/04 07:36:44;;;;;;;58.90;3.40;;;;;;;;;;5053377;28;20562;-66
2022/07/04 07:39:11;;;;;;;59.10;3.20;;;;;;;;;;5053402;28;21166;-66
2022/07/04 07:41:40;;;;;;;58.80;3.00;;;;;;;;;;5053245;28;20452;-67
2022/07/04 07:44:07;;;;;;;58.80;2.97;;;;;;;;;;5053339;28;20480;-66
2022/07/04 07:46:37;;;;;;;58.50;3.00;;;;;;;;;;5052565;28;20983;-66
2022/07/04 07:49:06;;;;;;;58.40;2.90;;;;;;;;;;5052937;28;21044;-66
2022/07/04 07:51:34;;;;;;;60.87;3.17;;;;;;;;;;5053057;28;20451;-66
2022/07/04 07:54:01;;;;;;;58.80;2.80;;;;;;;;;;5053178;28;20563;-67
2022/07/04 07:56:30;;;;;;;59.77;2.93;;;;;;;;;;5053288;28;20456;-66
2022/07/04 07:58:58;;;;;;;62.10;3.23;;;;;;;;;;5052946;28;20540;-66
2022/07/04 08:01:25;;;;;;;58.80;2.90;;;;;;;;;;5053059;28;20953;-67
2022/07/04 08:06:39;;;;;;;61.03;2.70;;;;;;;;;;5052977;28;20929;-67
2022/07/04 08:09:08;;;;;;;58.80;3.00;;;;;;;;;;5052601;28;20449;-66
2022/07/04 08:11:35;;;;;;;58.53;2.90;;;;;;;;;;5052865;28;20440;-67
2022/07/04 08:14:03;;;;;;;62.40;2.60;;;;;;;;;;5052857;28;20873;-65
2022/07/04 08:16:34;;;;;;;59.97;3.13;;;;;;;;;;5052506;28;20956;-65
2022/07/04 08:19:03;;;;;;;58.07;2.80;;;;;;;;;;5052774;28;20467;-66
2022/07/04 08:21:31;;;;;;;58.80;2.83;;;;;;;;;;5052880;28;20445;-67
2022/07/04 08:23:59;;;;;;;58.87;3.00;;;;;;;;;;5051566;28;20500;-67
2022/07/04 08:26:26;;;;;;;60.83;3.00;;;;;;;;;;5052490;28;20477;-67
2022/07/04 08:28:57;;;;;;;59.00;3.10;;;;;;;;;;5052159;28;20486;-66
2022/07/04 08:31:31;;;;;;;57.80;3.07;;;;;;;;;;5052352;28;20457;-65
2022/07/04 08:33:58;;;;;;;59.67;3.50;;;;;;;;;;5052393;28;20463;-66
2022/07/04 08:36:27;;;;;;;58.00;3.07;;;;;;;;;;5052448;28;20456;-65
2022/07/04 08:38:54;;;;;;;65.60;2.87;;;;;;;;;;5051911;28;20980;-66
2022/07/04 08:41:22;;;;;;;58.80;3.20;;;;;;;;;;5052673;28;20448;-65
2022/07/04 08:43:49;;;;;;;61.00;3.03;;;;;;;;;;5052124;28;20539;-66
2022/07/04 08:46:18;;;;;;;59.13;3.03;;;;;;;;;;5052076;28;21041;-65
2022/07/04 08:48:51;;;;;;;58.50;2.87;;;;;;;;;;5051941;28;20450;-66
2022/07/04 08:51:20;;;;;;;58.40;3.30;;;;;;;;;;5052267;28;20547;-66
2022/07/04 08:53:55;;;;;;;59.27;2.90;;;;;;;;;;5051766;28;20483;-67
2022/07/04 08:59:08;;;;;;;58.90;2.63;;;;;;;;;;5051794;28;20428;-67
2022/07/04 09:01:35;;;;;;;59.47;3.30;;;;;;;;;;5051983;28;20544;-66
2022/07/04 09:04:03;;;;;;;59.47;2.87;;;;;;;;;;5051764;28;20492;-65
2022/07/04 09:06:32;;;;;;;59.80;3.20;;;;;;;;;;5051634;28;20486;-66
2022/07/04 09:09:02;;;;;;;59.90;2.63;;;;;;;;;;5051740;28;20461;-67
2022/07/04 09:11:29;;;;;;;58.10;2.80;;;;;;;;;;5051939;28;20545;-66
2022/07/04 09:13:58;;;;;;;63.43;3.67;;;;;;;;;;5052041;28;20507;-66
2022/07/04 09:16:25;;;;;;;65.70;3.20;;;;;;;;;;5051826;28;20444;-66
2022/07/04 09:18:55;;;;;;;59.40;3.07;;;;;;;;;;5051297;28;20449;-66
2022/07/04 09:21:43;;;;;;;60.60;3.20;;;;;;;;;;5050402;28;20510;-65
2022/07/04 09:24:12;;;;;;;59.17;3.17;;;;;;;;;;5051522;28;20471;-67
2022/07/04 09:26:42;;;;;;;58.60;3.13;;;;;;;;;;5051931;28;20515;-67
2022/07/04 09:29:09;;;;;;;58.60;2.70;;;;;;;;;;5051320;28;20451;-66
2022/07/04 09:31:41;;;;;;;60.77;2.90;;;;;;;;;;5049714;28;20824;-67
2022/07/04 09:34:11;;;;;;;58.60;2.93;;;;;;;;;;5050882;28;20840;-66
2022/07/04 09:36:41;;;;;;;58.60;3.03;;;;;;;;;;5049877;28;20448;-66
2022/07/04 09:39:12;;;;;;;58.80;3.27;;;;;;;;;;5051216;28;20536;-65
2022/07/04 09:41:58;;;;;;;58.17;2.57;;;;;;;;;;5047173;28;20459;-65
2022/07/04 09:44:28;;;;;;;58.50;3.10;;;;;;;;;;5050319;28;20929;-66
2022/07/04 09:46:56;;;;;;;60.90;3.60;;;;;;;;;;5049180;28;20461;-65
2022/07/04 09:49:24;;;;;;;59.37;2.87;;;;;;;;;;5050421;28;20454;-66
2022/07/04 09:51:52;;;;;;;59.90;3.40;;;;;;;;;;5050619;28;20454;-65
2022/07/04 09:54:22;;;;;;;59.50;3.23;;;;;;;;;;5048508;28;20467;-66
2022/07/04 09:56:51;;;;;;;58.30;3.17;;;;;;;;;;5050420;28;20446;-65
2022/07/04 09:59:20;;;;;;;59.37;3.07;;;;;;;;;;5050313;28;20826;-66
2022/07/04 10:04:45;;;;;;;62.37;2.73;;;;;;;;;;4990254;28;20463;-66
2022/07/04 10:07:14;;;;;;;60.17;3.20;;;;;;;;;;5012473;28;20978;-66
2022/07/04 10:09:42;;;;;;;58.80;2.87;;;;;;;;;;5028231;28;20476;-66
2022/07/04 10:12:11;;;;;;;59.73;3.10;;;;;;;;;;5032527;28;20455;-66
2022/07/04 10:14:41;;;;;;;58.57;3.20;;;;;;;;;;4990747;28;20471;-65
2022/07/04 10:17:13;;;;;;;59.40;2.87;;;;;;;;;;4989590;28;20537;-66
2022/07/04 10:19:44;;;;;;;59.43;2.97;;;;;;;;;;4991536;28;20450;-65
2022/07/04 10:22:14;;;;;;;59.20;3.33;;;;;;;;;;4992730;28;20855;-66
2022/07/04 10:24:43;;;;;;;59.37;2.93;;;;;;;;;;4992504;28;20832;-67
2022/07/04 10:27:11;;;;;;;58.47;2.90;;;;;;;;;;4991979;28;20811;-66
2022/07/04 10:29:49;;;;;;;59.27;2.60;;;;;;;;;;5021266;28;20992;-66
2022/07/04 10:32:23;;;;;;;59.20;2.43;;;;;;;;;;5033204;28;20527;-66
2022/07/04 10:34:57;;;;;;;59.67;3.03;;;;;;;;;;5050509;28;20884;-65
2022/07/04 10:37:30;;;;;;;58.10;2.63;;;;;;;;;;5053963;28;20457;-64
2022/07/04 10:39:58;;;;;;;57.77;2.50;;;;;;;;;;5054421;28;20527;-66
2022/07/04 10:48:50;;;;;;;57.30;2.30;;;;;;;;;;4987247;28;21007;-65
2022/07/04 10:51:17;;;;;;;57.37;2.37;;;;;;;;;;4988549;28;20948;-65
2022/07/04 10:54:07;;;;;;;57.40;2.50;;;;;;;;;;4992294;28;20467;-66
2022/07/04 10:56:38;;;;;;;57.63;2.80;;;;;;;;;;4990370;28;20936;-65
2022/07/04 10:59:09;;;;;;;57.00;2.30;;;;;;;;;;4988609;28;20447;-66
2022/07/04 11:01:50;;;;;;;57.90;2.60;;;;;;;;;;4990218;28;20447;-66
2022/07/04 11:04:37;;;;;;;57.70;2.30;;;;;;;;;;4991842;28;20991;-65
2022/07/04 11:07:23;;;;;;;59.30;2.30;;;;;;;;;;4991290;28;20573;-64
2022/07/04 11:10:25;;;;;;;57.17;2.50;;;;;;;;;;4987452;28;20443;-65
2022/07/04 11:19:05;;;;;;;57.67;2.73;;;;;;;;;;5004304;28;20451;-65
2022/07/04 11:24:42;;;;;;;57.10;2.10;;;;;;;;;;5051057;28;20431;-66
2022/07/04 11:30:13;;;;;;;57.07;2.20;;;;;;;;;;5051159;28;20465;-66
2022/07/04 11:32:42;;;;;;;56.63;2.30;;;;;;;;;;5040622;28;20453;-66
2022/07/04 11:35:10;;;;;;;56.70;2.40;;;;;;;;;;5031322;28;20453;-66
2022/07/04 11:37:40;;;;;;;57.10;2.50;;;;;;;;;;5036748;28;21022;-66
2022/07/04 11:52:00;;;;;;;58.50;2.80;;;;;;;;;;5044505;28;20505;-66
2022/07/04 11:54:28;;;;;;;57.30;2.40;;;;;;;;;;5031273;28;20481;-66
2022/07/04 11:59:58;;;;;;;56.53;2.20;;;;;;;;;;5108368;27;20549;-66
2022/07/04 12:02:38;;;;;;;57.57;2.40;;;;;;;;;;5109441;28;20444;-64
2022/07/04 12:05:06;;;;;;;57.03;2.33;;;;;;;;;;5089179;28;20465;-65
2022/07/04 12:07:34;;;;;;;57.00;2.10;;;;;;;;;;5088468;28;20453;-64
2022/07/04 12:10:16;;;;;;;57.00;2.10;;;;;;;;;;5087840;28;20496;-64
2022/07/04 12:12:53;;;;;;;60.80;2.47;;;;;;;;;;5088323;28;20969;-65
2022/07/04 12:15:26;;;;;;;57.30;2.60;;;;;;;;;;5088768;28;20824;-65
2022/07/04 12:17:54;;;;;;;57.07;2.17;;;;;;;;;;5087714;28;20482;-64
2022/07/04 12:20:23;;;;;;;57.10;2.40;;;;;;;;;;5089132;28;20801;-65
2022/07/04 12:22:52;;;;;;;57.50;2.70;;;;;;;;;;5087373;28;20504;-65
2022/07/04 12:25:26;;;;;;;57.10;2.30;;;;;;;;;;5069782;28;20542;-64
2022/07/04 12:28:01;;;;;;;57.10;2.30;;;;;;;;;;5067922;28;20439;-65
2022/07/04 12:30:32;;;;;;;57.27;2.20;;;;;;;;;;5068012;28;20455;-64
2022/07/04 12:33:02;;;;;;;58.03;2.93;;;;;;;;;;5067467;28;20547;-65
2022/07/04 12:35:47;;;;;;;58.93;2.90;;;;;;;;;;5068050;28;20502;-65
2022/07/04 12:38:16;;;;;;;56.97;2.43;;;;;;;;;;5067647;28;20506;-65
2022/07/04 12:41:05;;;;;;;57.40;2.50;;;;;;;;;;5068284;28;20889;-65
2022/07/04 12:43:50;;;;;;;57.97;2.40;;;;;;;;;;5067986;28;20447;-65
2022/07/04 12:46:31;;;;;;;56.80;2.33;;;;;;;;;;5067727;28;20455;-65
2022/07/04 12:48:59;;;;;;;56.97;2.53;;;;;;;;;;5067367;28;20878;-66
2022/07/04 12:51:27;;;;;;;57.27;2.30;;;;;;;;;;5067237;28;20475;-66
2022/07/04 12:53:59;;;;;;;57.27;2.50;;;;;;;;;;5079037;28;20473;-66
2022/07/04 12:56:38;;;;;;;56.97;2.43;;;;;;;;;;5088419;28;20499;-66
2022/07/04 12:59:07;;;;;;;57.43;2.37;;;;;;;;;;5087661;28;20866;-66
2022/07/04 13:01:38;;;;;;;57.27;2.40;;;;;;;;;;5088008;28;20446;-66
2022/07/04 13:04:06;;;;;;;56.83;2.53;;;;;;;;;;5088283;28;20466;-66
2022/07/04 13:06:34;;;;;;;57.30;2.63;;;;;;;;;;5086981;28;20482;-66
2022/07/04 13:09:07;;;;;;;58.70;3.13;;;;;;;;;;5086449;28;20474;-66
2022/07/04 13:14:20;;;;;;;56.80;2.30;;;;;;;;;;5074500;28;20446;-66
2022/07/04 13:16:53;;;;;;;56.87;2.13;;;;;;;;;;5074532;28;20533;-66
2022/07/04 13:19:22;;;;;;;57.40;2.63;;;;;;;;;;5074489;28;20570;-66
2022/07/04 13:21:53;;;;;;;57.00;2.40;;;;;;;;;;5074570;28;20539;-66
2022/07/04 13:24:23;;;;;;;56.77;2.37;;;;;;;;;;5074703;28;20467;-66
2022/07/04 13:27:05;;;;;;;57.07;2.47;;;;;;;;;;5074516;28;20431;-66
2022/07/04 13:29:33;;;;;;;56.87;2.60;;;;;;;;;;5074047;28;20500;-66
2022/07/04 13:32:05;;;;;;;60.17;2.80;;;;;;;;;;5074189;28;20868;-66
2022/07/04 13:34:44;;;;;;;58.20;2.53;;;;;;;;;;5074419;28;20474;-66
2022/07/04 13:37:15;;;;;;;57.37;2.80;;;;;;;;;;5074103;28;20479;-66
2022/07/04 13:39:44;;;;;;;58.17;2.63;;;;;;;;;;5073834;28;20490;-66
2022/07/04 13:42:12;;;;;;;56.60;2.20;;;;;;;;;;5074259;28;20542;-66
2022/07/04 13:44:39;;;;;;;56.93;2.40;;;;;;;;;;5072953;28;20835;-66
2022/07/04 13:47:08;;;;;;;57.10;2.23;;;;;;;;;;5073824;28;20443;-66
2022/07/04 13:49:36;;;;;;;59.00;2.57;;;;;;;;;;5074166;28;20458;-67
2022/07/04 13:52:03;;;;;;;57.40;2.50;;;;;;;;;;5074398;28;20473;-67
2022/07/04 13:54:31;;;;;;;57.70;2.37;;;;;;;;;;5073878;28;20475;-67
2022/07/04 13:56:58;;;;;;;57.80;2.57;;;;;;;;;;5073821;28;20435;-67
2022/07/04 13:59:26;;;;;;;57.20;2.70;;;;;;;;;;5073498;28;20487;-66
2022/07/04 14:01:53;;;;;;;57.73;2.50;;;;;;;;;;5073688;28;20439;-66
2022/07/04 14:04:23;;;;;;;57.70;2.80;;;;;;;;;;5073657;28;20493;-66
2022/07/04 14:06:50;;;;;;;57.20;2.40;;;;;;;;;;5073662;28;20454;-66
2022/07/04 14:09:17;;;;;;;56.93;2.07;;;;;;;;;;5072504;28;20483;-66
2022/07/04 14:11:49;;;;;;;57.27;2.27;;;;;;;;;;5073697;28;20447;-67
2022/07/04 14:14:16;;;;;;;57.30;2.67;;;;;;;;;;5073746;28;20463;-67
2022/07/04 14:16:43;;;;;;;57.03;2.30;;;;;;;;;;5073654;28;20892;-67
2022/07/04 14:19:11;;;;;;;57.47;2.17;;;;;;;;;;5073176;28;20566;-67
2022/07/04 14:21:40;;;;;;;58.00;2.80;;;;;;;;;;5072442;28;20455;-66
2022/07/04 14:24:08;;;;;;;57.10;2.10;;;;;;;;;;5073154;28;20495;-66
2022/07/04 14:26:35;;;;;;;57.40;2.57;;;;;;;;;;5073396;28;20447;-66
2022/07/04 14:29:02;;;;;;;58.57;2.40;;;;;;;;;;5073453;28;20858;-65
2022/07/04 14:31:30;;;;;;;57.67;2.70;;;;;;;;;;5073020;28;20447;-65
2022/07/04 14:33:58;;;;;;;58.63;2.60;;;;;;;;;;5072773;28;20850;-65
2022/07/04 14:36:25;;;;;;;57.70;2.37;;;;;;;;;;5072886;28;20447;-65
2022/07/04 14:38:54;;;;;;;58.47;2.37;;;;;;;;;;5071274;28;20487;-65
2022/07/04 14:41:21;;;;;;;59.20;2.87;;;;;;;;;;5072913;28;20868;-65
2022/07/04 14:43:51;;;;;;;58.97;3.23;;;;;;;;;;5072513;28;20847;-65
2022/07/04 14:46:19;;;;;;;58.07;2.73;;;;;;;;;;5072532;28;20538;-65
2022/07/04 14:48:47;;;;;;;58.60;2.70;;;;;;;;;;5072341;28;20479;-65
2022/07/04 14:51:15;;;;;;;58.23;2.60;;;;;;;;;;5072786;28;20825;-66
2022/07/04 14:53:43;;;;;;;57.77;2.33;;;;;;;;;;5072659;28;20464;-66
2022/07/04 14:56:14;;;;;;;58.90;2.80;;;;;;;;;;5071233;28;20888;-66
2022/07/04 14:58:41;;;;;;;60.17;3.10;;;;;;;;;;5072077;28;20556;-66
2022/07/04 15:01:09;;;;;;;57.90;2.40;;;;;;;;;;5072377;28;20872;-66
2022/07/04 15:03:37;;;;;;;57.97;2.30;;;;;;;;;;5072402;28;20467;-66
2022/07/04 15:06:05;;;;;;;57.43;2.50;;;;;;;;;;5072430;28;20439;-66
2022/07/04 15:08:32;;;;;;;57.50;2.40;;;;;;;;;;5071989;28;20452;-66
2022/07/04 15:10:59;;;;;;;57.47;2.27;;;;;;;;;;5071995;28;20533;-66
2022/07/04 15:13:28;;;;;;;57.60;2.43;;;;;;;;;;5072008;28;21015;-66
2022/07/04 15:15:56;;;;;;;57.97;2.40;;;;;;;;;;5072556;28;20517;-66
2022/07/04 15:18:25;;;;;;;57.77;2.43;;;;;;;;;;5071700;28;20948;-66
2022/07/04 15:26:22;;;;;;;57.80;2.70;;;;;;;;;;5071976;28;20537;-66
2022/07/04 15:28:55;;;;;;;59.37;2.53;;;;;;;;;;5071692;28;20447;-66
2022/07/04 15:31:22;;;;;;;57.90;2.63;;;;;;;;;;5071958;28;20963;-66
2022/07/04 15:33:50;;;;;;;57.67;2.70;;;;;;;;;;5071584;28;20467;-65
2022/07/04 15:36:17;;;;;;;58.13;2.57;;;;;;;;;;5054053;28;20550;-66
2022/07/04 15:38:44;;;;;;;61.33;3.33;;;;;;;;;;5071377;28;20447;-65
2022/07/04 15:41:15;;;;;;;58.03;2.90;;;;;;;;;;5071977;28;20529;-65